createdAt,value
2017-07-23T00:00:01.558Z,988.54
2017-07-23T00:01:01.560Z,988.5
2017-07-23T00:02:01.565Z,988.54
2017-07-23T00:03:01.576Z,988.51
2017-07-23T00:04:01.580Z,988.53
2017-07-23T00:05:01.579Z,988.57
2017-07-23T00:06:01.643Z,988.59
2017-07-23T00:07:01.586Z,988.59
2017-07-23T00:08:01.590Z,988.65
2017-07-23T00:09:01.598Z,988.65
2017-07-23T00:10:01.597Z,988.7
2017-07-23T00:11:01.608Z,988.67
2017-07-23T00:12:01.611Z,988.67
2017-07-23T00:13:01.608Z,988.69
2017-07-23T00:14:01.613Z,988.72
2017-07-23T00:15:01.617Z,988.7
2017-07-23T00:16:01.620Z,988.7
2017-07-23T00:17:01.624Z,988.79
2017-07-23T00:18:01.633Z,988.71
2017-07-23T00:19:01.636Z,988.7
2017-07-23T00:20:01.647Z,988.68
2017-07-23T00:21:01.644Z,988.6
2017-07-23T00:22:01.647Z,988.66
2017-07-23T00:23:01.648Z,988.63
2017-07-23T00:24:01.651Z,988.74
2017-07-23T00:25:01.654Z,988.73
2017-07-23T00:26:01.658Z,988.78
2017-07-23T00:27:01.662Z,988.87
2017-07-23T00:28:01.672Z,988.84
2017-07-23T00:29:01.671Z,988.85
2017-07-23T00:30:01.675Z,988.92
2017-07-23T00:31:01.679Z,988.92
2017-07-23T00:32:01.684Z,988.98
2017-07-23T00:33:01.691Z,989
2017-07-23T00:34:01.691Z,988.92
2017-07-23T00:35:01.707Z,988.93
2017-07-23T00:36:01.708Z,988.97
2017-07-23T00:37:01.706Z,988.94
2017-07-23T00:38:01.710Z,988.99
2017-07-23T00:39:01.711Z,988.95
2017-07-23T00:40:01.716Z,988.97
2017-07-23T00:41:01.718Z,989.1
2017-07-23T00:42:01.722Z,989.1
2017-07-23T00:43:01.727Z,989.13
2017-07-23T00:44:01.729Z,989.08
2017-07-23T00:45:01.742Z,989.06
2017-07-23T00:46:01.737Z,989.03
2017-07-23T00:47:01.741Z,989.04
2017-07-23T00:48:01.744Z,989.05
2017-07-23T00:49:01.758Z,989.06
2017-07-23T00:50:01.757Z,989
2017-07-23T00:51:01.757Z,988.98
2017-07-23T00:52:01.762Z,988.98
2017-07-23T00:53:01.763Z,988.92
2017-07-23T00:54:01.768Z,988.91
2017-07-23T00:55:01.772Z,988.99
2017-07-23T00:56:01.777Z,988.92
2017-07-23T00:57:01.786Z,988.92
2017-07-23T00:58:01.785Z,988.9
2017-07-23T00:59:01.788Z,988.92
2017-07-23T01:00:03.599Z,988.96
2017-07-23T01:01:01.798Z,988.95
2017-07-23T01:02:01.800Z,988.94
2017-07-23T01:03:01.803Z,988.96
2017-07-23T01:04:01.828Z,988.91
2017-07-23T01:05:01.834Z,988.92
2017-07-23T01:06:01.828Z,988.95
2017-07-23T01:07:01.825Z,988.98
2017-07-23T01:08:01.825Z,988.99
2017-07-23T01:09:01.826Z,989.07
2017-07-23T01:10:01.831Z,989.07
2017-07-23T01:11:01.831Z,989.09
2017-07-23T01:12:01.835Z,989.11
2017-07-23T01:13:01.838Z,989.21
2017-07-23T01:14:01.856Z,989.17
2017-07-23T01:15:01.895Z,989.14
2017-07-23T01:16:01.897Z,989.1
2017-07-23T01:17:01.858Z,989.09
2017-07-23T01:18:01.859Z,989.09
2017-07-23T01:19:01.866Z,989.14
2017-07-23T01:20:01.862Z,989.1
2017-07-23T01:21:01.866Z,989.19
2017-07-23T01:22:01.869Z,989.13
2017-07-23T01:23:01.874Z,989.15
2017-07-23T01:24:01.877Z,989.17
2017-07-23T01:25:01.881Z,989.15
2017-07-23T01:26:01.883Z,989.16
2017-07-23T01:27:01.889Z,989.13
2017-07-23T01:28:01.890Z,989.17
2017-07-23T01:29:01.894Z,989.14
2017-07-23T01:30:01.899Z,989.12
2017-07-23T01:31:01.903Z,989.16
2017-07-23T01:32:01.904Z,989.12
2017-07-23T01:33:01.908Z,989.13
2017-07-23T01:34:01.912Z,989.09
2017-07-23T01:35:01.925Z,989.08
2017-07-23T01:36:01.923Z,989.06
2017-07-23T01:37:01.937Z,989.04
2017-07-23T01:38:01.926Z,989.11
2017-07-23T01:39:01.928Z,989.12
2017-07-23T01:40:01.932Z,989.15
2017-07-23T01:41:01.934Z,989.16
2017-07-23T01:42:01.939Z,989.2
2017-07-23T01:43:01.942Z,989.19
2017-07-23T01:44:01.946Z,989.2
2017-07-23T01:45:01.950Z,989.18
2017-07-23T01:46:01.953Z,989.24
2017-07-23T01:47:01.955Z,989.29
2017-07-23T01:48:01.959Z,989.21
2017-07-23T01:49:01.962Z,989.22
2017-07-23T01:50:01.964Z,989.16
2017-07-23T01:51:01.967Z,989.13
2017-07-23T01:52:01.973Z,989.1
2017-07-23T01:53:01.977Z,989.15
2017-07-23T01:54:01.979Z,989.18
2017-07-23T01:55:01.982Z,989.21
2017-07-23T01:56:01.987Z,989.27
2017-07-23T01:57:02.025Z,989.24
2017-07-23T01:58:01.992Z,989.24
2017-07-23T01:59:01.996Z,989.27
2017-07-23T02:00:02.002Z,989.32
2017-07-23T02:01:03.052Z,989.35
2017-07-23T02:02:02.006Z,989.3
2017-07-23T02:03:02.010Z,989.28
2017-07-23T02:04:02.017Z,989.27
2017-07-23T02:05:02.021Z,989.31
2017-07-23T02:06:02.025Z,989.26
2017-07-23T02:07:02.024Z,989.32
2017-07-23T02:08:02.033Z,989.37
2017-07-23T02:09:02.034Z,989.36
2017-07-23T02:10:02.035Z,989.44
2017-07-23T02:11:02.038Z,989.43
2017-07-23T02:12:02.041Z,989.44
2017-07-23T02:13:02.045Z,989.44
2017-07-23T02:14:02.048Z,989.41
2017-07-23T02:15:02.050Z,989.53
2017-07-23T02:16:02.055Z,989.51
2017-07-23T02:17:02.059Z,989.54
2017-07-23T02:18:02.062Z,989.52
2017-07-23T02:19:02.068Z,989.56
2017-07-23T02:20:02.068Z,989.56
2017-07-23T02:21:02.082Z,989.57
2017-07-23T02:22:02.085Z,989.56
2017-07-23T02:23:02.087Z,989.47
2017-07-23T02:24:02.083Z,989.51
2017-07-23T02:25:02.105Z,989.52
2017-07-23T02:26:02.090Z,989.55
2017-07-23T02:27:02.092Z,989.56
2017-07-23T02:28:02.095Z,989.55
2017-07-23T02:29:02.101Z,989.53
2017-07-23T02:30:02.102Z,989.51
2017-07-23T02:31:02.106Z,989.58
2017-07-23T02:32:02.109Z,989.55
2017-07-23T02:33:02.113Z,989.63
2017-07-23T02:34:02.117Z,989.65
2017-07-23T02:35:02.119Z,989.66
2017-07-23T02:36:02.124Z,989.62
2017-07-23T02:37:02.129Z,989.62
2017-07-23T02:38:02.128Z,989.66
2017-07-23T02:39:02.131Z,989.57
2017-07-23T02:40:02.143Z,989.59
2017-07-23T02:41:02.146Z,989.57
2017-07-23T02:42:02.144Z,989.53
2017-07-23T02:43:02.145Z,989.55
2017-07-23T02:44:02.148Z,989.54
2017-07-23T02:45:02.149Z,989.52
2017-07-23T02:46:02.156Z,989.52
2017-07-23T02:47:02.156Z,989.47
2017-07-23T02:48:02.168Z,989.52
2017-07-23T02:49:02.162Z,989.55
2017-07-23T02:50:02.166Z,989.49
2017-07-23T02:51:02.169Z,989.56
2017-07-23T02:52:02.170Z,989.56
2017-07-23T02:53:02.175Z,989.59
2017-07-23T02:54:02.177Z,989.51
2017-07-23T02:55:02.179Z,989.54
2017-07-23T02:56:02.182Z,989.55
2017-07-23T02:57:02.185Z,989.45
2017-07-23T02:58:02.189Z,989.49
2017-07-23T02:59:02.194Z,989.41
2017-07-23T03:00:02.194Z,989.44
2017-07-23T03:01:02.197Z,989.43
2017-07-23T03:02:02.200Z,989.42
2017-07-23T03:03:02.201Z,989.4
2017-07-23T03:04:02.206Z,989.42
2017-07-23T03:05:02.209Z,989.43
2017-07-23T03:06:02.214Z,989.45
2017-07-23T03:07:02.213Z,989.4
2017-07-23T03:08:02.217Z,989.37
2017-07-23T03:09:02.228Z,989.33
2017-07-23T03:10:02.231Z,989.32
2017-07-23T03:11:02.229Z,989.34
2017-07-23T03:12:02.231Z,989.35
2017-07-23T03:13:02.252Z,989.37
2017-07-23T03:14:02.235Z,989.43
2017-07-23T03:15:02.238Z,989.46
2017-07-23T03:16:02.254Z,989.47
2017-07-23T03:17:02.295Z,989.45
2017-07-23T03:18:02.248Z,989.46
2017-07-23T03:19:02.251Z,989.49
2017-07-23T03:20:02.254Z,989.51
2017-07-23T03:21:02.257Z,989.55
2017-07-23T03:22:02.260Z,989.57
2017-07-23T03:23:02.263Z,989.49
2017-07-23T03:24:02.266Z,989.54
2017-07-23T03:25:02.271Z,989.57
2017-07-23T03:26:02.275Z,989.62
2017-07-23T03:27:02.275Z,989.69
2017-07-23T03:28:02.289Z,989.74
2017-07-23T03:29:02.280Z,989.74
2017-07-23T03:30:02.285Z,989.85
2017-07-23T03:31:02.297Z,989.96
2017-07-23T03:32:04.303Z,990.05
2017-07-23T03:33:02.299Z,990.04
2017-07-23T03:34:02.303Z,990.07
2017-07-23T03:35:02.301Z,990.05
2017-07-23T03:36:02.300Z,990.07
2017-07-23T03:37:02.304Z,990.03
2017-07-23T03:38:02.307Z,989.95
2017-07-23T03:39:02.311Z,989.93
2017-07-23T03:40:02.313Z,989.9
2017-07-23T03:41:02.316Z,989.98
2017-07-23T03:42:02.319Z,990.1
2017-07-23T03:43:02.322Z,990.14
2017-07-23T03:44:02.355Z,990.13
2017-07-23T03:45:02.328Z,990.12
2017-07-23T03:46:02.334Z,990.12
2017-07-23T03:47:02.333Z,990.13
2017-07-23T03:48:02.336Z,990.11
2017-07-23T03:49:02.341Z,990.11
2017-07-23T03:50:02.345Z,990.06
2017-07-23T03:51:02.345Z,990.04
2017-07-23T03:52:02.347Z,990.02
2017-07-23T03:53:02.349Z,990.09
2017-07-23T03:54:02.352Z,990.08
2017-07-23T03:55:02.355Z,990.08
2017-07-23T03:56:02.358Z,990.07
2017-07-23T03:57:02.369Z,990.09
2017-07-23T03:58:02.363Z,990.08
2017-07-23T03:59:02.366Z,990.09
2017-07-23T04:00:02.369Z,990.17
2017-07-23T04:01:02.392Z,990.16
2017-07-23T04:02:02.374Z,990.19
2017-07-23T04:03:02.377Z,990.21
2017-07-23T04:04:02.390Z,990.27
2017-07-23T04:05:02.382Z,990.3
2017-07-23T04:06:02.385Z,990.31
2017-07-23T04:07:02.388Z,990.31
2017-07-23T04:08:02.395Z,990.3
2017-07-23T04:09:02.394Z,990.28
2017-07-23T04:10:02.397Z,990.26
2017-07-23T04:11:02.399Z,990.27
2017-07-23T04:12:02.405Z,990.24
2017-07-23T04:13:02.404Z,990.23
2017-07-23T04:14:02.410Z,990.22
2017-07-23T04:15:02.416Z,990.16
2017-07-23T04:16:02.413Z,990.15
2017-07-23T04:17:02.417Z,990.15
2017-07-23T04:18:03.673Z,990.18
2017-07-23T04:19:02.423Z,990.18
2017-07-23T04:20:02.423Z,990.22
2017-07-23T04:21:02.428Z,990.23
2017-07-23T04:22:02.429Z,990.27
2017-07-23T04:23:02.433Z,990.33
2017-07-23T04:24:02.435Z,990.43
2017-07-23T04:25:02.440Z,990.42
2017-07-23T04:26:02.441Z,990.44
2017-07-23T04:27:02.452Z,990.48
2017-07-23T04:28:02.455Z,990.54
2017-07-23T04:29:02.453Z,990.54
2017-07-23T04:30:02.456Z,990.6
2017-07-23T04:31:02.455Z,990.61
2017-07-23T04:32:02.459Z,990.67
2017-07-23T04:33:02.462Z,990.66
2017-07-23T04:34:02.466Z,990.65
2017-07-23T04:35:02.470Z,990.66
2017-07-23T04:36:02.470Z,990.63
2017-07-23T04:37:02.474Z,990.69
2017-07-23T04:38:02.475Z,990.69
2017-07-23T04:39:02.479Z,990.65
2017-07-23T04:40:02.482Z,990.66
2017-07-23T04:41:02.484Z,990.67
2017-07-23T04:42:02.486Z,990.75
2017-07-23T04:43:02.489Z,990.71
2017-07-23T04:44:02.493Z,990.69
2017-07-23T04:45:02.497Z,990.65
2017-07-23T04:46:02.497Z,990.69
2017-07-23T04:47:02.499Z,990.69
2017-07-23T04:48:02.504Z,990.68
2017-07-23T04:49:02.506Z,990.67
2017-07-23T04:50:02.509Z,990.73
2017-07-23T04:51:02.512Z,990.64
2017-07-23T04:52:02.514Z,990.68
2017-07-23T04:53:02.517Z,990.66
2017-07-23T04:54:02.521Z,990.64
2017-07-23T04:55:02.524Z,990.7
2017-07-23T04:56:02.529Z,990.66
2017-07-23T04:57:02.528Z,990.66
2017-07-23T04:58:02.531Z,990.65
2017-07-23T04:59:02.535Z,990.56
2017-07-23T05:00:02.537Z,990.54
2017-07-23T05:01:02.540Z,990.6
2017-07-23T05:02:02.546Z,990.59
2017-07-23T05:03:02.546Z,990.62
2017-07-23T05:04:02.549Z,990.69
2017-07-23T05:05:02.553Z,990.72
2017-07-23T05:06:02.553Z,990.76
2017-07-23T05:07:02.558Z,990.78
2017-07-23T05:08:02.559Z,990.75
2017-07-23T05:09:02.563Z,990.73
2017-07-23T05:10:02.566Z,990.74
2017-07-23T05:11:02.569Z,990.76
2017-07-23T05:12:02.572Z,990.82
2017-07-23T05:13:02.574Z,990.79
2017-07-23T05:14:02.584Z,990.83
2017-07-23T05:15:02.579Z,990.81
2017-07-23T05:16:02.582Z,990.84
2017-07-23T05:17:02.590Z,990.83
2017-07-23T05:18:02.589Z,990.82
2017-07-23T05:19:02.602Z,990.86
2017-07-23T05:20:02.604Z,990.9
2017-07-23T05:21:02.603Z,990.87
2017-07-23T05:22:02.605Z,990.9
2017-07-23T05:23:02.617Z,990.9
2017-07-23T05:24:02.625Z,990.9
2017-07-23T05:25:02.622Z,990.88
2017-07-23T05:26:02.626Z,990.91
2017-07-23T05:27:02.623Z,990.91
2017-07-23T05:28:02.623Z,990.9
2017-07-23T05:29:02.633Z,990.84
2017-07-23T05:30:02.652Z,990.84
2017-07-23T05:31:02.636Z,990.85
2017-07-23T05:32:02.640Z,990.85
2017-07-23T05:33:02.643Z,990.9
2017-07-23T05:34:04.442Z,990.86
2017-07-23T05:35:02.654Z,990.87
2017-07-23T05:36:02.664Z,990.89
2017-07-23T05:37:02.665Z,990.95
2017-07-23T05:38:02.660Z,990.94
2017-07-23T05:39:02.659Z,990.96
2017-07-23T05:40:02.662Z,990.96
2017-07-23T05:41:02.677Z,991.01
2017-07-23T05:42:02.677Z,990.95
2017-07-23T05:43:02.694Z,990.98
2017-07-23T05:44:02.694Z,991
2017-07-23T05:45:02.685Z,990.95
2017-07-23T05:46:02.698Z,990.95
2017-07-23T05:47:02.694Z,990.91
2017-07-23T05:48:02.705Z,990.91
2017-07-23T05:49:02.716Z,990.93
2017-07-23T05:50:02.711Z,990.91
2017-07-23T05:51:02.703Z,990.89
2017-07-23T05:52:02.706Z,990.87
2017-07-23T05:53:02.710Z,990.88
2017-07-23T05:54:02.720Z,990.94
2017-07-23T05:55:02.736Z,990.97
2017-07-23T05:56:02.729Z,991.02
2017-07-23T05:57:02.733Z,991.01
2017-07-23T05:58:02.755Z,990.99
2017-07-23T05:59:02.748Z,991
2017-07-23T06:00:02.733Z,991.09
2017-07-23T06:01:02.750Z,991.05
2017-07-23T06:02:02.750Z,991.09
2017-07-23T06:03:02.749Z,991.14
2017-07-23T06:04:02.757Z,991.14
2017-07-23T06:05:02.772Z,991.14
2017-07-23T06:06:02.773Z,991.17
2017-07-23T06:07:02.790Z,991.15
2017-07-23T06:08:02.769Z,991.16
2017-07-23T06:09:02.778Z,991.21
2017-07-23T06:10:02.785Z,991.2
2017-07-23T06:11:02.781Z,991.2
2017-07-23T06:12:02.780Z,991.23
2017-07-23T06:13:02.787Z,991.17
2017-07-23T06:14:02.801Z,991.21
2017-07-23T06:15:02.793Z,991.28
2017-07-23T06:16:02.812Z,991.21
2017-07-23T06:17:02.808Z,991.17
2017-07-23T06:18:02.807Z,991.17
2017-07-23T06:19:02.835Z,991.21
2017-07-23T06:20:02.810Z,991.25
2017-07-23T06:21:02.819Z,991.33
2017-07-23T06:22:02.821Z,991.35
2017-07-23T06:23:02.818Z,991.37
2017-07-23T06:24:02.828Z,991.32
2017-07-23T06:25:02.842Z,991.28
2017-07-23T06:26:02.851Z,991.3
2017-07-23T06:27:02.844Z,991.32
2017-07-23T06:28:02.834Z,991.37
2017-07-23T06:29:02.853Z,991.44
2017-07-23T06:30:02.865Z,991.43
2017-07-23T06:31:02.855Z,991.43
2017-07-23T06:32:02.856Z,991.48
2017-07-23T06:33:02.856Z,991.48
2017-07-23T06:34:02.876Z,991.47
2017-07-23T06:35:02.876Z,991.44
2017-07-23T06:36:02.875Z,991.58
2017-07-23T06:37:02.881Z,991.41
2017-07-23T06:38:02.889Z,991.42
2017-07-23T06:39:02.895Z,991.49
2017-07-23T06:40:02.890Z,991.48
2017-07-23T06:41:02.900Z,991.3
2017-07-23T06:42:02.917Z,991.29
2017-07-23T06:43:02.917Z,991.28
2017-07-23T06:44:02.916Z,991.3
2017-07-23T06:45:02.928Z,991.29
2017-07-23T06:46:02.945Z,991.26
2017-07-23T06:47:02.934Z,991.21
2017-07-23T06:48:02.945Z,991.22
2017-07-23T06:49:02.942Z,991.19
2017-07-23T06:50:02.940Z,991.17
2017-07-23T06:51:02.952Z,991.17
2017-07-23T06:52:02.958Z,991.19
2017-07-23T06:53:02.955Z,991.19
2017-07-23T06:54:02.959Z,991.15
2017-07-23T06:55:02.973Z,991.19
2017-07-23T06:56:02.984Z,991.13
2017-07-23T06:57:02.983Z,991.14
2017-07-23T06:58:02.984Z,991.16
2017-07-23T06:59:02.983Z,991.18
2017-07-23T07:00:02.995Z,991.19
2017-07-23T07:01:02.992Z,991.24
2017-07-23T07:02:02.998Z,991.3
2017-07-23T07:03:03.012Z,991.35
2017-07-23T07:04:03.020Z,991.45
2017-07-23T07:05:04.013Z,991.45
2017-07-23T07:06:03.014Z,991.4
2017-07-23T07:07:03.021Z,991.41
2017-07-23T07:08:03.020Z,991.41
2017-07-23T07:09:03.044Z,991.43
2017-07-23T07:10:03.028Z,991.53
2017-07-23T07:11:03.033Z,991.6
2017-07-23T07:12:03.044Z,991.58
2017-07-23T07:13:03.045Z,991.55
2017-07-23T07:14:03.047Z,991.49
2017-07-23T07:15:03.049Z,991.45
2017-07-23T07:16:03.053Z,991.41
2017-07-23T07:17:03.058Z,991.47
2017-07-23T07:18:03.063Z,991.43
2017-07-23T07:19:03.067Z,991.42
2017-07-23T07:20:03.071Z,991.43
2017-07-23T07:21:03.075Z,991.39
2017-07-23T07:22:03.207Z,991.4
2017-07-23T07:23:03.084Z,991.46
2017-07-23T07:24:03.088Z,991.51
2017-07-23T07:25:03.127Z,991.53
2017-07-23T07:26:03.103Z,991.45
2017-07-23T07:27:03.101Z,991.47
2017-07-23T07:28:03.108Z,991.5
2017-07-23T07:29:03.109Z,991.51
2017-07-23T07:30:03.113Z,991.49
2017-07-23T07:31:03.118Z,991.5
2017-07-23T07:32:03.122Z,991.48
2017-07-23T07:33:03.126Z,991.47
2017-07-23T07:34:03.129Z,991.49
2017-07-23T07:35:03.132Z,991.47
2017-07-23T07:36:03.136Z,991.51
2017-07-23T07:37:03.141Z,991.55
2017-07-23T07:38:03.146Z,991.55
2017-07-23T07:39:03.149Z,991.59
2017-07-23T07:40:03.155Z,991.59
2017-07-23T07:41:03.157Z,991.59
2017-07-23T07:42:03.161Z,991.58
2017-07-23T07:43:03.167Z,991.57
2017-07-23T07:44:03.171Z,991.63
2017-07-23T07:45:03.174Z,991.72
2017-07-23T07:46:03.177Z,991.7
2017-07-23T07:47:03.181Z,991.71
2017-07-23T07:48:03.184Z,991.72
2017-07-23T07:49:03.186Z,991.75
2017-07-23T07:50:03.193Z,991.75
2017-07-23T07:51:03.197Z,991.8
2017-07-23T07:52:03.199Z,991.82
2017-07-23T07:53:03.205Z,991.86
2017-07-23T07:54:03.209Z,991.83
2017-07-23T07:55:03.212Z,991.82
2017-07-23T07:56:03.217Z,991.77
2017-07-23T07:57:03.221Z,991.82
2017-07-23T07:58:03.225Z,991.8
2017-07-23T07:59:03.230Z,991.86
2017-07-23T08:00:03.233Z,991.96
2017-07-23T08:01:03.237Z,991.92
2017-07-23T08:02:03.244Z,991.94
2017-07-23T08:03:03.244Z,991.87
2017-07-23T08:04:03.248Z,991.89
2017-07-23T08:05:03.252Z,991.89
2017-07-23T08:06:03.258Z,991.85
2017-07-23T08:07:03.262Z,991.87
2017-07-23T08:08:03.266Z,991.86
2017-07-23T08:09:03.270Z,991.83
2017-07-23T08:10:03.275Z,991.83
2017-07-23T08:11:03.280Z,991.86
2017-07-23T08:12:03.292Z,991.9
2017-07-23T08:13:03.291Z,991.91
2017-07-23T08:14:03.296Z,991.9
2017-07-23T08:15:03.297Z,991.88
2017-07-23T08:16:03.308Z,991.83
2017-07-23T08:17:03.309Z,991.85
2017-07-23T08:18:03.313Z,991.89
2017-07-23T08:19:03.318Z,991.88
2017-07-23T08:20:03.324Z,991.87
2017-07-23T08:21:03.328Z,991.92
2017-07-23T08:22:03.332Z,991.94
2017-07-23T08:23:03.339Z,991.95
2017-07-23T08:24:03.344Z,991.86
2017-07-23T08:25:03.347Z,991.91
2017-07-23T08:26:04.159Z,991.89
2017-07-23T08:27:03.360Z,991.9
2017-07-23T08:28:03.370Z,991.92
2017-07-23T08:29:03.371Z,991.95
2017-07-23T08:30:03.376Z,991.84
2017-07-23T08:31:03.387Z,991.88
2017-07-23T08:32:03.385Z,991.9
2017-07-23T08:33:03.392Z,991.92
2017-07-23T08:34:03.400Z,991.87
2017-07-23T08:35:03.418Z,991.86
2017-07-23T08:36:03.417Z,991.88
2017-07-23T08:37:03.421Z,991.89
2017-07-23T08:38:03.424Z,991.87
2017-07-23T08:39:03.431Z,991.86
2017-07-23T08:40:03.436Z,991.84
2017-07-23T08:41:03.451Z,991.78
2017-07-23T08:42:03.450Z,991.77
2017-07-23T08:43:03.458Z,991.81
2017-07-23T08:44:03.463Z,991.86
2017-07-23T08:45:03.478Z,991.86
2017-07-23T08:46:03.478Z,991.84
2017-07-23T08:47:03.489Z,991.84
2017-07-23T08:48:03.495Z,991.84
2017-07-23T08:49:03.501Z,991.82
2017-07-23T08:50:03.507Z,991.92
2017-07-23T08:51:03.519Z,991.87
2017-07-23T08:52:03.525Z,991.89
2017-07-23T08:53:03.535Z,991.88
2017-07-23T08:54:03.537Z,991.97
2017-07-23T08:55:03.544Z,992
2017-07-23T08:56:03.553Z,992
2017-07-23T08:57:03.559Z,992.09
2017-07-23T08:58:03.569Z,992.06
2017-07-23T08:59:03.576Z,992.1
2017-07-23T09:00:03.586Z,992.07
2017-07-23T09:01:03.595Z,992.04
2017-07-23T09:02:03.598Z,992.05
2017-07-23T09:03:03.606Z,991.99
2017-07-23T09:04:03.612Z,991.99
2017-07-23T09:05:03.619Z,991.97
2017-07-23T09:06:03.704Z,991.94
2017-07-23T09:07:03.633Z,991.91
2017-07-23T09:08:03.640Z,991.95
2017-07-23T09:09:03.645Z,991.85
2017-07-23T09:10:03.650Z,991.87
2017-07-23T09:11:03.656Z,991.87
2017-07-23T09:12:03.663Z,991.91
2017-07-23T09:13:03.671Z,991.97
2017-07-23T09:14:03.676Z,991.91
2017-07-23T09:15:03.681Z,991.88
2017-07-23T09:16:03.686Z,991.81
2017-07-23T09:17:03.698Z,991.85
2017-07-23T09:18:03.706Z,991.9
2017-07-23T09:19:03.704Z,991.9
2017-07-23T09:20:03.711Z,991.85
2017-07-23T09:21:03.716Z,991.86
2017-07-23T09:22:05.022Z,991.87
2017-07-23T09:23:03.726Z,991.81
2017-07-23T09:24:03.730Z,991.86
2017-07-23T09:25:03.736Z,991.95
2017-07-23T09:26:03.741Z,991.97
2017-07-23T09:27:03.746Z,991.9
2017-07-23T09:28:03.752Z,991.96
2017-07-23T09:29:03.757Z,992.04
2017-07-23T09:30:03.763Z,992.08
2017-07-23T09:31:03.770Z,992.02
2017-07-23T09:32:03.779Z,992.07
2017-07-23T09:33:03.784Z,992.08
2017-07-23T09:34:03.780Z,992.06
2017-07-23T09:35:03.788Z,992.12
2017-07-23T09:36:03.793Z,992.15
2017-07-23T09:37:03.799Z,992.14
2017-07-23T09:38:03.801Z,992.16
2017-07-23T09:39:03.810Z,992.12
2017-07-23T09:40:03.812Z,992.13
2017-07-23T09:41:03.817Z,992.11
2017-07-23T09:42:03.823Z,992.09
2017-07-23T09:43:03.833Z,992.06
2017-07-23T09:44:03.834Z,992.04
2017-07-23T09:45:03.838Z,992.08
2017-07-23T09:46:03.845Z,992.07
2017-07-23T09:47:03.847Z,992.07
2017-07-23T09:48:03.854Z,992.11
2017-07-23T09:49:03.860Z,992.13
2017-07-23T09:50:03.864Z,992.05
2017-07-23T09:51:03.869Z,992.13
2017-07-23T09:52:03.875Z,992.08
2017-07-23T09:53:03.879Z,992.08
2017-07-23T09:54:03.888Z,992.11
2017-07-23T09:55:03.891Z,992.03
2017-07-23T09:56:03.896Z,992.07
2017-07-23T09:57:03.908Z,992.05
2017-07-23T09:58:03.913Z,992.06
2017-07-23T09:59:03.913Z,992.02
2017-07-23T10:00:03.917Z,992.05
2017-07-23T10:01:03.924Z,992.06
2017-07-23T10:02:03.929Z,991.99
2017-07-23T10:03:03.939Z,991.99
2017-07-23T10:04:03.941Z,992
2017-07-23T10:05:03.958Z,992
2017-07-23T10:06:03.952Z,991.95
2017-07-23T10:07:03.955Z,991.93
2017-07-23T10:08:03.963Z,991.99
2017-07-23T10:09:03.980Z,992.04
2017-07-23T10:10:03.976Z,992.07
2017-07-23T10:11:03.979Z,992
2017-07-23T10:12:03.987Z,992
2017-07-23T10:13:03.993Z,992.04
2017-07-23T10:14:03.998Z,992.02
2017-07-23T10:15:03.999Z,991.97
2017-07-23T10:16:04.007Z,992.02
2017-07-23T10:17:04.012Z,992.06
2017-07-23T10:18:04.017Z,992.04
2017-07-23T10:19:04.023Z,992.1
2017-07-23T10:20:04.028Z,992.06
2017-07-23T10:21:04.033Z,992.07
2017-07-23T10:22:04.039Z,992.01
2017-07-23T10:23:05.146Z,992.09
2017-07-23T10:24:04.049Z,992.08
2017-07-23T10:25:04.055Z,992.03
2017-07-23T10:26:04.062Z,992.1
2017-07-23T10:27:04.066Z,992.1
2017-07-23T10:28:04.070Z,992.07
2017-07-23T10:29:04.079Z,992.09
2017-07-23T10:30:04.086Z,992.04
2017-07-23T10:31:04.088Z,992.06
2017-07-23T10:32:04.095Z,992.09
2017-07-23T10:33:04.098Z,992.01
2017-07-23T10:34:04.105Z,992.07
2017-07-23T10:35:04.113Z,992.11
2017-07-23T10:36:04.114Z,992.12
2017-07-23T10:37:04.118Z,992.1
2017-07-23T10:38:04.124Z,992.05
2017-07-23T10:39:04.132Z,992.11
2017-07-23T10:40:04.134Z,991.97
2017-07-23T10:41:04.142Z,991.95
2017-07-23T10:42:04.151Z,991.93
2017-07-23T10:43:04.156Z,991.97
2017-07-23T10:44:04.163Z,992.08
2017-07-23T10:45:04.164Z,992.1
2017-07-23T10:46:04.171Z,992.06
2017-07-23T10:47:04.175Z,992.04
2017-07-23T10:48:04.182Z,992.01
2017-07-23T10:49:04.186Z,992.04
2017-07-23T10:50:04.193Z,992.09
2017-07-23T10:51:04.200Z,992.13
2017-07-23T10:52:04.206Z,992.12
2017-07-23T10:53:04.210Z,992.03
2017-07-23T10:54:04.216Z,991.94
2017-07-23T10:55:04.217Z,991.92
2017-07-23T10:56:04.225Z,992
2017-07-23T10:57:04.231Z,992.04
2017-07-23T10:58:04.236Z,991.98
2017-07-23T10:59:04.243Z,991.96
2017-07-23T11:00:04.247Z,991.91
2017-07-23T11:01:04.253Z,991.95
2017-07-23T11:02:04.260Z,991.92
2017-07-23T11:03:04.263Z,991.95
2017-07-23T11:04:04.270Z,991.94
2017-07-23T11:05:04.276Z,991.88
2017-07-23T11:06:04.282Z,991.87
2017-07-23T11:07:04.294Z,991.88
2017-07-23T11:08:04.294Z,991.98
2017-07-23T11:09:04.303Z,991.93
2017-07-23T11:10:04.307Z,991.92
2017-07-23T11:11:04.305Z,991.92
2017-07-23T11:12:04.311Z,991.87
2017-07-23T11:13:04.320Z,991.95
2017-07-23T11:14:04.322Z,991.95
2017-07-23T11:15:04.327Z,991.98
2017-07-23T11:16:04.333Z,991.98
2017-07-23T11:17:04.336Z,992.03
2017-07-23T11:18:04.342Z,992
2017-07-23T11:19:04.348Z,991.95
2017-07-23T11:20:04.351Z,992
2017-07-23T11:21:04.356Z,992.09
2017-07-23T11:22:04.368Z,992.09
2017-07-23T11:23:04.371Z,992.08
2017-07-23T11:24:04.421Z,992.05
2017-07-23T11:25:04.378Z,992.08
2017-07-23T11:26:04.383Z,992.01
2017-07-23T11:27:04.389Z,992.08
2017-07-23T11:28:04.396Z,992
2017-07-23T11:29:04.409Z,992.09
2017-07-23T11:30:04.403Z,992.06
2017-07-23T11:31:04.408Z,991.97
2017-07-23T11:32:04.413Z,992.12
2017-07-23T11:33:04.418Z,992.05
2017-07-23T11:34:04.426Z,992.07
2017-07-23T11:35:04.428Z,992.08
2017-07-23T11:36:04.433Z,991.93
2017-07-23T11:37:04.438Z,991.99
2017-07-23T11:38:04.443Z,992
2017-07-23T11:39:05.549Z,992.01
2017-07-23T11:40:04.460Z,992.09
2017-07-23T11:41:04.459Z,992.11
2017-07-23T11:42:04.464Z,992.1
2017-07-23T11:43:04.468Z,992
2017-07-23T11:44:04.475Z,991.82
2017-07-23T11:45:04.481Z,991.84
2017-07-23T11:46:04.484Z,991.84
2017-07-23T11:47:04.489Z,991.87
2017-07-23T11:48:04.494Z,991.88
2017-07-23T11:49:04.499Z,991.89
2017-07-23T11:50:04.505Z,991.89
2017-07-23T11:51:04.509Z,991.91
2017-07-23T11:52:04.517Z,991.85
2017-07-23T11:53:04.519Z,991.85
2017-07-23T11:54:04.526Z,991.91
2017-07-23T11:55:04.530Z,991.93
2017-07-23T11:56:04.538Z,991.82
2017-07-23T11:57:04.544Z,991.7
2017-07-23T11:58:04.545Z,991.71
2017-07-23T11:59:04.552Z,991.69
2017-07-23T12:00:04.556Z,991.69
2017-07-23T12:01:04.560Z,991.71
2017-07-23T12:02:04.568Z,991.85
2017-07-23T12:03:04.572Z,991.9
2017-07-23T12:04:04.576Z,991.92
2017-07-23T12:05:04.582Z,991.9
2017-07-23T12:06:04.587Z,991.82
2017-07-23T12:07:04.602Z,991.72
2017-07-23T12:08:04.601Z,991.73
2017-07-23T12:09:04.636Z,991.62
2017-07-23T12:10:04.611Z,991.68
2017-07-23T12:11:04.614Z,991.7
2017-07-23T12:12:04.622Z,991.77
2017-07-23T12:13:04.624Z,991.69
2017-07-23T12:14:04.631Z,991.67
2017-07-23T12:15:04.633Z,991.79
2017-07-23T12:16:04.642Z,991.8
2017-07-23T12:17:04.644Z,991.81
2017-07-23T12:18:04.650Z,991.79
2017-07-23T12:19:04.655Z,991.84
2017-07-23T12:20:04.666Z,991.8
2017-07-23T12:21:04.664Z,991.77
2017-07-23T12:22:04.668Z,991.73
2017-07-23T12:23:04.702Z,991.77
2017-07-23T12:24:04.689Z,991.65
2017-07-23T12:25:04.692Z,991.65
2017-07-23T12:26:04.704Z,991.77
2017-07-23T12:27:04.695Z,991.77
2017-07-23T12:28:04.704Z,991.67
2017-07-23T12:29:04.710Z,991.67
2017-07-23T12:30:04.714Z,991.63
2017-07-23T12:31:04.720Z,991.65
2017-07-23T12:32:04.733Z,991.62